Terminal Aerodrome Forecast
Issued by NWS

Home | Current Version | Previous Version | Text Only | Print | Product List | Glossary On
Versions: 1 2 3 4 5 6 7 8 9 10 11 12 13 14 15 16 17 18 19 20 21 22 23
000
FTUS43 KGRB 221411 AAA
TAFCWA
TAF AMD
KCWA 221411Z 2214/2312 10004KT 2SM BR OVC002
      TEMPO 2214/2216 5SM BR SCT002 OVC007
     FM221600 16004KT P6SM BKN015
     FM222100 23005KT P6SM BKN035 PROB30 2223/2301 5SM -TSRA
      BKN025CB
     FM230100 29005KT P6SM VCTS BKN035CB
     FM230400 30004KT 5SM BR VCSH BKN030
     FM230900 29004KT 3SM BR SCT030=

USA.gov is the U.S. government's official web portal to all federal, state and local government web resources and services.